Time;durP1;ratioP1;P1;durP2;ratioP2;P2;SDS_P1;SDS_P2;PMS_P1;PMS_P2;Temp;Humidity;BMP_temperature;BMP_pressure;BME280_temperature;BME280_humidity;BME280_pressure;Samples;Min_cycle;Max_cycle;Signal;HPM_P1;HPM_P2
2022/04/08 00:02:12;;;;;;;11.00;1.92;;;;;;;5.69;89.56;99798.84;4945476;28;20380;-71
2022/04/08 00:04:37;;;;;;;11.23;1.90;;;;;;;5.70;89.49;99795.31;4970753;28;20082;-71
2022/04/08 00:07:03;;;;;;;9.27;1.90;;;;;;;5.72;90.07;99794.31;4966736;28;20031;-71
2022/04/08 00:09:28;;;;;;;12.93;2.50;;;;;;;5.72;88.97;99794.31;4970112;28;20050;-70
2022/04/08 00:11:55;;;;;;;8.57;2.28;;;;;;;5.70;88.13;99811.06;4962438;28;20088;-71
2022/04/08 00:14:20;;;;;;;11.43;2.20;;;;;;;5.72;88.15;99810.09;4924918;28;20030;-72
2022/04/08 00:16:46;;;;;;;17.75;2.80;;;;;;;5.71;89.36;99812.78;4966409;28;20034;-72
2022/04/08 00:19:11;;;;;;;9.65;2.13;;;;;;;5.65;90.95;99797.28;4963829;28;20523;-73
2022/04/08 00:21:37;;;;;;;12.48;1.80;;;;;;;5.50;91.21;99825.00;4965829;28;20451;-72
2022/04/08 00:24:03;;;;;;;12.30;2.53;;;;;;;5.38;93.17;99816.72;4972502;28;20039;-72
2022/04/08 00:26:29;;;;;;;9.52;2.35;;;;;;;5.26;93.32;99817.19;4944145;28;20030;-72
2022/04/08 00:28:54;;;;;;;9.35;2.28;;;;;;;5.19;93.88;99819.22;4968179;28;20025;-71
2022/04/08 00:31:19;;;;;;;13.25;2.15;;;;;;;5.12;94.71;99823.00;4967557;28;20030;-71
2022/04/08 00:33:45;;;;;;;12.63;1.92;;;;;;;5.10;94.95;99819.56;4963360;28;20125;-71
2022/04/08 00:36:10;;;;;;;10.32;1.92;;;;;;;5.12;92.88;99825.63;4950788;28;20109;-70
2022/04/08 00:38:36;;;;;;;11.60;2.08;;;;;;;5.14;92.00;99823.78;4969707;28;20058;-71
2022/04/08 00:41:01;;;;;;;12.68;2.10;;;;;;;5.24;90.86;99827.78;4960985;28;20023;-71
2022/04/08 00:43:35;;;;;;;9.77;1.77;;;;;;;5.27;91.20;99831.19;4964289;28;20035;-71
2022/04/08 00:46:05;;;;;;;5.97;1.42;;;;;;;5.32;89.04;99827.47;4967171;28;20022;-71
2022/04/08 00:48:31;;;;;;;8.32;1.60;;;;;;;5.31;89.13;99830.16;4948622;28;20085;-72
2022/04/08 00:50:58;;;;;;;7.40;1.48;;;;;;;5.28;88.15;99846.00;4946293;28;20042;-70
2022/04/08 00:53:24;;;;;;;13.95;2.45;;;;;;;5.29;88.84;99851.19;4954948;28;20466;-71
2022/04/08 00:55:49;;;;;;;8.55;1.67;;;;;;;5.20;89.23;99852.41;4965402;28;20031;-72
2022/04/08 00:58:15;;;;;;;10.27;2.03;;;;;;;5.12;89.25;99854.47;4947978;28;20070;-72
2022/04/08 01:00:42;;;;;;;16.42;2.25;;;;;;;5.06;89.58;99855.59;4943496;28;20101;-71
2022/04/08 01:03:08;;;;;;;9.80;1.85;;;;;;;4.99;91.47;99858.50;4952284;28;20405;-72
2022/04/08 01:05:34;;;;;;;9.82;1.95;;;;;;;4.90;91.13;99855.28;4959878;28;20030;-73
2022/04/08 01:08:01;;;;;;;14.93;2.03;;;;;;;4.89;92.38;99869.31;4954472;28;20113;-71
2022/04/08 01:10:27;;;;;;;11.05;2.00;;;;;;;4.91;93.20;99864.88;4949518;28;20027;-72
2022/04/08 01:12:52;;;;;;;10.02;2.50;;;;;;;4.93;92.33;99849.91;4930609;28;20497;-71
2022/04/08 01:15:22;;;;;;;7.90;1.67;;;;;;;4.94;92.29;99845.53;4962661;28;20038;-72
2022/04/08 01:17:48;;;;;;;9.38;1.80;;;;;;;4.89;92.36;99855.34;4964688;28;20022;-71
2022/04/08 01:20:14;;;;;;;13.15;1.83;;;;;;;4.84;93.13;99852.88;4949212;28;20038;-71
2022/04/08 01:22:40;;;;;;;10.27;1.77;;;;;;;4.82;93.67;99862.59;4967917;28;20027;-71
2022/04/08 01:25:07;;;;;;;8.48;2.63;;;;;;;4.81;94.25;99857.38;4950477;28;20035;-71
2022/04/08 01:27:35;;;;;;;11.65;1.98;;;;;;;4.81;94.41;99866.13;4941410;28;20174;-71
2022/04/08 01:30:01;;;;;;;12.93;2.33;;;;;;;4.87;94.57;99867.66;4964820;28;20054;-71
2022/04/08 01:32:26;;;;;;;15.23;2.28;;;;;;;4.91;94.82;99861.38;4950346;28;20701;-70
2022/04/08 01:34:53;;;;;;;12.68;2.03;;;;;;;5.01;94.34;99868.03;4969535;28;20027;-72
2022/04/08 01:37:19;;;;;;;12.57;2.38;;;;;;;5.09;94.37;99862.47;4964340;28;20928;-73
2022/04/08 01:39:44;;;;;;;10.15;2.08;;;;;;;5.19;94.44;99873.47;4969492;28;20026;-71
2022/04/08 01:42:10;;;;;;;20.58;2.80;;;;;;;5.27;94.05;99879.28;4970795;28;20031;-71
2022/04/08 01:44:36;;;;;;;9.82;2.03;;;;;;;5.28;93.54;99886.25;4964976;28;20034;-71
2022/04/08 01:47:03;;;;;;;10.20;1.90;;;;;;;5.25;93.60;99879.34;4969918;28;20026;-71
2022/04/08 01:49:28;;;;;;;12.05;2.20;;;;;;;5.29;93.27;99887.94;4968296;28;20045;-71
2022/04/08 01:51:54;;;;;;;12.00;2.13;;;;;;;5.32;93.76;99885.22;4978019;28;20027;-72
2022/04/08 01:54:19;;;;;;;13.80;2.17;;;;;;;5.33;93.16;99886.94;4959504;28;20070;-71
2022/04/08 01:56:45;;;;;;;16.25;2.30;;;;;;;5.31;93.42;99898.41;4969113;28;20030;-72
2022/04/08 01:59:10;;;;;;;10.00;2.03;;;;;;;5.34;91.75;99896.50;4969467;28;20125;-73
2022/04/08 02:01:35;;;;;;;13.07;2.33;;;;;;;5.35;90.67;99894.75;4972684;28;20035;-71
2022/04/08 02:04:01;;;;;;;4.93;1.90;;;;;;;5.39;88.63;99891.94;4974712;28;20038;-72
2022/04/08 02:06:26;;;;;;;12.43;2.35;;;;;;;5.35;88.47;99902.63;4966946;28;20038;-71
2022/04/08 02:08:53;;;;;;;7.45;1.88;;;;;;;5.31;88.12;99893.16;4972541;28;20062;-70
2022/04/08 02:11:19;;;;;;;6.57;1.98;;;;;;;5.25;87.68;99902.94;4958629;28;20069;-71
2022/04/08 02:13:44;;;;;;;11.10;2.40;;;;;;;5.16;88.07;99890.19;4974246;28;20058;-71
2022/04/08 02:16:10;;;;;;;8.15;2.65;;;;;;;5.08;88.86;99887.00;4950814;28;20117;-71
2022/04/08 02:18:35;;;;;;;4.45;2.05;;;;;;;5.01;89.13;99888.13;4971267;28;20402;-72
2022/04/08 02:21:01;;;;;;;9.32;2.22;;;;;;;4.96;89.86;99897.94;4974181;28;20042;-72
2022/04/08 02:23:26;;;;;;;5.47;1.75;;;;;;;4.93;89.18;99891.03;4974615;28;20031;-72
2022/04/08 02:25:52;;;;;;;6.35;1.98;;;;;;;4.88;88.58;99879.88;4970557;28;20474;-71
2022/04/08 02:28:19;;;;;;;9.25;2.15;;;;;;;4.82;88.71;99878.34;4976807;28;20485;-72
2022/04/08 02:30:44;;;;;;;11.32;2.38;;;;;;;4.77;89.51;99877.66;4986336;28;20114;-72
2022/04/08 02:33:09;;;;;;;10.20;2.22;;;;;;;4.74;90.10;99878.63;4974881;28;20031;-71
2022/04/08 02:35:34;;;;;;;12.68;2.33;;;;;;;4.72;90.07;99869.09;4977325;28;20471;-71
2022/04/08 02:38:00;;;;;;;7.38;2.20;;;;;;;4.72;90.33;99869.09;4969923;28;20482;-72
2022/04/08 02:40:25;;;;;;;10.57;2.55;;;;;;;4.71;90.65;99864.75;4976473;28;20430;-73
2022/04/08 02:42:51;;;;;;;8.25;2.58;;;;;;;4.69;90.88;99874.44;4974700;28;20043;-72
2022/04/08 02:45:17;;;;;;;9.65;2.00;;;;;;;4.61;91.42;99869.47;4978770;28;20045;-73
2022/04/08 02:47:43;;;;;;;8.65;2.13;;;;;;;4.56;91.08;99881.88;4978528;28;20031;-73
2022/04/08 02:50:09;;;;;;;10.52;2.25;;;;;;;4.56;91.40;99874.00;4975292;28;20105;-72
2022/04/08 02:52:35;;;;;;;12.65;2.53;;;;;;;4.59;89.63;99871.28;4975516;28;20073;-72
2022/04/08 02:55:01;;;;;;;7.35;1.60;;;;;;;4.62;88.98;99872.94;4976502;28;20483;-72
2022/04/08 02:57:26;;;;;;;7.05;1.92;;;;;;;4.63;87.60;99882.50;4964254;28;20051;-71
2022/04/08 02:59:53;;;;;;;7.35;1.58;;;;;;;4.65;87.87;99885.94;4951336;28;20042;-72
2022/04/08 03:02:19;;;;;;;13.13;2.60;;;;;;;4.60;89.05;99880.84;4975982;28;20788;-72
2022/04/08 03:04:44;;;;;;;11.43;2.40;;;;;;;4.56;88.57;99895.00;4974446;28;20031;-70
2022/04/08 03:07:10;;;;;;;6.25;1.90;;;;;;;4.53;89.29;99901.19;4950858;28;20521;-72
2022/04/08 03:09:36;;;;;;;5.45;1.73;;;;;;;4.53;88.57;99909.06;4971048;28;20040;-72
2022/04/08 03:12:03;;;;;;;5.07;1.50;;;;;;;4.54;88.29;99904.66;4973742;28;20122;-71
2022/04/08 03:14:28;;;;;;;8.10;1.90;;;;;;;4.57;89.26;99910.66;4966643;28;20061;-71
2022/04/08 03:16:53;;;;;;;5.45;1.60;;;;;;;4.54;90.46;99925.63;4965284;28;20062;-71
2022/04/08 03:19:19;;;;;;;9.65;2.58;;;;;;;4.52;91.00;99924.84;4973902;28;20113;-71
2022/04/08 03:21:44;;;;;;;8.20;1.58;;;;;;;4.48;91.98;99920.63;4987889;28;20118;-73
2022/04/08 03:24:10;;;;;;;6.72;1.80;;;;;;;4.45;92.29;99928.59;4968775;28;20030;-72
2022/04/08 03:26:37;;;;;;;13.02;2.10;;;;;;;4.42;93.30;99914.69;4976661;28;20486;-72
2022/04/08 03:29:02;;;;;;;4.95;1.50;;;;;;;4.41;93.90;99920.84;4971477;28;20062;-71
2022/04/08 03:31:29;;;;;;;6.57;1.70;;;;;;;4.45;93.96;99923.34;4974350;28;20575;-71
2022/04/08 03:33:55;;;;;;;9.13;1.80;;;;;;;4.47;93.71;99919.75;4973215;28;20031;-71
2022/04/08 03:36:20;;;;;;;7.65;1.80;;;;;;;4.54;93.56;99930.88;4977294;28;20027;-72
2022/04/08 03:38:45;;;;;;;7.55;2.38;;;;;;;4.52;94.18;99928.31;4965784;28;20039;-72
2022/04/08 03:41:11;;;;;;;7.40;2.00;;;;;;;4.51;93.94;99923.97;4973216;28;20034;-71
2022/04/08 03:43:36;;;;;;;11.18;2.30;;;;;;;4.54;93.11;99920.41;4973537;28;20034;-72
2022/04/08 03:46:01;;;;;;;9.98;2.00;;;;;;;4.51;93.61;99916.13;4973813;28;20027;-72
2022/04/08 03:48:27;;;;;;;6.97;1.45;;;;;;;4.46;93.98;99919.81;4971786;28;20023;-73
2022/04/08 03:50:53;;;;;;;6.57;1.98;;;;;;;4.43;94.28;99924.25;4970834;28;20069;-71
2022/04/08 03:53:19;;;;;;;5.38;1.77;;;;;;;4.41;94.45;99914.72;4968106;28;20045;-71
2022/04/08 03:55:45;;;;;;;8.25;2.00;;;;;;;4.37;95.16;99908.75;4978195;28;20498;-71
2022/04/08 03:58:10;;;;;;;8.32;2.05;;;;;;;4.33;95.60;99898.41;4971149;28;20057;-71
2022/04/08 04:00:38;;;;;;;10.82;2.10;;;;;;;4.32;96.22;99909.81;4970702;28;20471;-72
2022/04/08 04:03:04;;;;;;;7.85;1.85;;;;;;;4.33;95.71;99919.38;4972540;28;20039;-71
2022/04/08 04:05:35;;;;;;;5.28;1.48;;;;;;;4.35;95.22;99907.94;4944561;28;20038;-72
2022/04/08 04:08:01;;;;;;;11.53;1.90;;;;;;;4.35;94.96;99909.69;4970729;28;20114;-72
2022/04/08 04:10:27;;;;;;;6.40;1.42;;;;;;;4.37;94.48;99902.63;4965896;28;20061;-73
2022/04/08 04:12:53;;;;;;;8.80;1.45;;;;;;;4.41;94.63;99902.50;4958300;28;20030;-73
2022/04/08 04:15:19;;;;;;;10.98;1.80;;;;;;;4.41;94.40;99905.13;4972038;28;20610;-72
2022/04/08 04:17:45;;;;;;;9.75;1.67;;;;;;;4.39;94.11;99901.69;4962929;28;20030;-72
2022/04/08 04:20:11;;;;;;;9.85;1.90;;;;;;;4.34;94.80;99905.38;4970916;28;20039;-72
2022/04/08 04:22:37;;;;;;;8.82;1.50;;;;;;;4.32;94.87;99905.41;4970922;28;20037;-72
2022/04/08 04:25:03;;;;;;;10.65;1.88;;;;;;;4.33;95.04;99904.50;4971190;28;20114;-73
2022/04/08 04:27:28;;;;;;;7.45;1.50;;;;;;;4.32;94.80;99907.19;4969737;28;20313;-73
2022/04/08 04:29:53;;;;;;;8.45;2.42;;;;;;;4.30;95.10;99903.75;4931513;28;20145;-71
2022/04/08 04:32:19;;;;;;;11.05;1.60;;;;;;;4.29;94.92;99908.16;4978432;28;20047;-72
2022/04/08 04:34:45;;;;;;;10.65;2.08;;;;;;;4.27;94.78;99909.94;4943485;28;20679;-73
2022/04/08 04:37:11;;;;;;;7.40;1.42;;;;;;;4.31;95.44;99913.31;4958502;28;20023;-73
2022/04/08 04:39:37;;;;;;;8.75;1.67;;;;;;;4.37;94.31;99914.00;4961112;28;20085;-72
2022/04/08 04:42:03;;;;;;;12.90;1.70;;;;;;;4.38;94.45;99918.31;4969783;28;20033;-74
2022/04/08 04:44:28;;;;;;;9.07;1.80;;;;;;;4.37;94.10;99910.50;4968350;28;20109;-72
2022/04/08 04:46:55;;;;;;;10.25;1.70;;;;;;;4.35;94.12;99904.44;4971746;28;20058;-71
2022/04/08 04:49:21;;;;;;;13.40;2.00;;;;;;;4.37;94.19;99914.00;4956141;28;20046;-72
2022/04/08 04:51:47;;;;;;;16.88;2.00;;;;;;;4.40;94.32;99907.78;4968336;28;20026;-72
2022/04/08 04:54:12;;;;;;;8.20;1.90;;;;;;;4.46;94.74;99906.72;4969794;28;20030;-72
2022/04/08 04:56:38;;;;;;;11.32;2.45;;;;;;;4.56;93.97;99916.81;4970650;28;21225;-72
2022/04/08 04:59:03;;;;;;;11.65;2.00;;;;;;;4.66;93.30;99913.91;4960354;28;20502;-72
2022/04/08 05:01:29;;;;;;;12.90;1.90;;;;;;;4.72;93.43;99908.44;4969203;28;20109;-73
2022/04/08 05:03:54;;;;;;;8.18;2.20;;;;;;;4.79;93.30;99912.53;4967312;28;20031;-71
2022/04/08 05:06:20;;;;;;;10.32;1.90;;;;;;;4.82;92.25;99912.44;4969894;28;20031;-72
2022/04/08 05:08:45;;;;;;;10.30;1.73;;;;;;;4.79;92.42;99912.53;4971264;28;20479;-72
2022/04/08 05:11:10;;;;;;;8.40;2.00;;;;;;;4.84;92.21;99901.88;4952821;28;20074;-73
2022/04/08 05:13:36;;;;;;;15.98;2.47;;;;;;;4.86;92.57;99902.66;4968024;28;20121;-71
2022/04/08 05:16:01;;;;;;;8.02;1.92;;;;;;;4.88;91.76;99895.59;4952800;28;20066;-71
2022/04/08 05:18:26;;;;;;;9.75;1.90;;;;;;;4.86;91.43;99902.66;4952810;28;20129;-71
2022/04/08 05:20:52;;;;;;;12.75;2.00;;;;;;;4.85;91.13;99893.94;4964249;28;20034;-72
2022/04/08 05:23:21;;;;;;;13.80;3.35;;;;;;;4.86;91.36;99895.66;4951344;28;20031;-71
2022/04/08 05:25:46;;;;;;;7.05;1.73;;;;;;;4.94;90.37;99892.75;4971491;28;20042;-71
2022/04/08 05:28:12;;;;;;;7.35;1.90;;;;;;;4.96;90.12;99892.69;4968720;28;20066;-71
2022/04/08 05:30:38;;;;;;;11.20;2.25;;;;;;;5.00;90.04;99889.03;4970164;28;20058;-73
2022/04/08 05:33:04;;;;;;;9.25;2.10;;;;;;;5.06;89.07;99896.69;4953415;28;20121;-71
2022/04/08 05:35:29;;;;;;;13.90;2.13;;;;;;;5.09;87.93;99894.81;4967086;28;20421;-71
2022/04/08 05:37:55;;;;;;;10.65;1.70;;;;;;;5.18;88.18;99895.38;4957096;28;20252;-71
2022/04/08 05:40:21;;;;;;;10.38;2.00;;;;;;;5.22;86.93;99879.47;4977095;28;20112;-71
2022/04/08 05:42:47;;;;;;;7.35;1.88;;;;;;;5.25;86.96;99871.44;4980757;28;20504;-71
2022/04/08 05:45:16;;;;;;;9.85;2.40;;;;;;;5.25;86.97;99879.34;4952805;28;20542;-71
2022/04/08 05:47:42;;;;;;;7.47;1.80;;;;;;;5.28;87.07;99873.13;4944618;28;20026;-72
2022/04/08 05:50:08;;;;;;;8.00;1.88;;;;;;;5.32;87.48;99861.59;4971784;28;20030;-71
2022/04/08 05:52:34;;;;;;;6.45;1.58;;;;;;;5.42;87.64;99872.56;4972085;28;20117;-72
2022/04/08 05:54:59;;;;;;;8.75;1.73;;;;;;;5.48;86.53;99866.25;4955951;28;20079;-71
2022/04/08 05:57:24;;;;;;;10.05;3.25;;;;;;;5.54;86.22;99868.63;4972801;28;20110;-71
2022/04/08 05:59:50;;;;;;;13.95;2.53;;;;;;;5.59;87.40;99871.94;4967940;28;20121;-71
2022/04/08 06:02:16;;;;;;;13.35;2.75;;;;;;;5.65;86.89;99876.94;4972543;28;20027;-72
2022/04/08 06:04:42;;;;;;;11.48;1.85;;;;;;;5.70;87.49;99875.00;4973008;28;20085;-72
2022/04/08 06:07:08;;;;;;;15.40;3.53;;;;;;;5.71;86.67;99870.56;4973090;28;20023;-72
2022/04/08 06:09:34;;;;;;;10.93;2.00;;;;;;;5.79;87.20;99881.63;4962775;28;20495;-73
2022/04/08 06:11:59;;;;;;;7.90;2.50;;;;;;;5.85;86.21;99872.66;4955230;28;20035;-72
2022/04/08 06:14:26;;;;;;;7.97;1.73;;;;;;;5.93;86.72;99875.81;4970879;28;20030;-72
2022/04/08 06:16:52;;;;;;;11.95;2.17;;;;;;;6.00;86.14;99882.56;4972516;28;20093;-71
2022/04/08 06:19:17;;;;;;;9.13;1.80;;;;;;;6.05;86.73;99885.00;4956057;28;20406;-71
2022/04/08 06:21:42;;;;;;;12.25;2.33;;;;;;;6.08;86.75;99879.63;4972354;28;20035;-72
2022/04/08 06:24:08;;;;;;;16.90;2.33;;;;;;;6.13;86.51;99875.00;4957393;28;20030;-69
2022/04/08 06:26:36;;;;;;;16.42;2.90;;;;;;;6.10;87.02;99876.91;4972584;28;20031;-71
2022/04/08 06:29:02;;;;;;;12.45;2.50;;;;;;;6.15;86.92;99883.72;4972037;28;20041;-71
2022/04/08 06:31:29;;;;;;;13.07;2.20;;;;;;;6.17;87.18;99879.22;4968863;28;20035;-71
2022/04/08 06:33:57;;;;;;;14.93;2.85;;;;;;;6.18;86.10;99873.03;4971307;28;20050;-71
2022/04/08 06:36:23;;;;;;;8.07;2.13;;;;;;;6.22;86.31;99876.41;4972543;28;20488;-72
2022/04/08 06:38:48;;;;;;;11.52;2.10;;;;;;;6.24;87.92;99879.84;4972435;28;20034;-72
2022/04/08 06:41:14;;;;;;;11.90;2.97;;;;;;;6.22;87.29;99874.63;4973567;28;20541;-73
2022/04/08 06:43:39;;;;;;;9.98;2.03;;;;;;;6.31;87.42;99880.44;4955196;28;20441;-71
2022/04/08 06:46:04;;;;;;;13.18;2.83;;;;;;;6.36;86.67;99887.19;4974770;28;20494;-71
2022/04/08 06:48:30;;;;;;;11.68;1.88;;;;;;;6.40;87.39;99885.28;4958391;28;20053;-71
2022/04/08 06:50:58;;;;;;;10.10;2.40;;;;;;;6.45;86.61;99893.00;4956480;28;20031;-71
2022/04/08 06:53:24;;;;;;;15.40;2.42;;;;;;;6.46;86.29;99885.03;4987179;28;20459;-71
2022/04/08 06:55:49;;;;;;;5.18;1.98;;;;;;;6.50;87.49;99881.34;4990735;28;20035;-71
2022/04/08 06:58:15;;;;;;;6.32;1.77;;;;;;;6.63;84.95;99878.19;4979653;28;20059;-72
2022/04/08 07:00:40;;;;;;;9.40;2.00;;;;;;;6.69;85.29;99877.91;4972257;28;20035;-71
2022/04/08 07:03:05;;;;;;;8.18;2.00;;;;;;;6.76;84.79;99875.84;4974509;28;20038;-71
2022/04/08 07:05:31;;;;;;;11.27;2.70;;;;;;;6.83;84.77;99877.28;4969816;28;20050;-71
2022/04/08 07:07:57;;;;;;;14.20;2.10;;;;;;;6.85;82.98;99876.31;4975671;28;20034;-71
2022/04/08 07:10:22;;;;;;;9.80;1.77;;;;;;;6.97;83.14;99879.28;4941545;28;20422;-71
2022/04/08 07:12:47;;;;;;;13.75;2.25;;;;;;;7.01;83.06;99883.50;4965504;28;20042;-71
2022/04/08 07:15:13;;;;;;;8.15;1.83;;;;;;;7.03;82.40;99876.38;4963337;28;20023;-73
2022/04/08 07:17:42;;;;;;;11.73;2.25;;;;;;;7.23;83.22;99872.84;4954957;29;20126;-71
2022/04/08 07:20:07;;;;;;;15.77;2.30;;;;;;;7.38;81.62;99873.91;4956430;29;20031;-71
2022/04/08 07:22:34;;;;;;;10.15;2.00;;;;;;;7.49;81.79;99873.38;4956037;29;20035;-71
2022/04/08 07:24:59;;;;;;;11.00;2.42;;;;;;;7.50;80.65;99867.19;4945303;28;20038;-71
2022/04/08 07:27:24;;;;;;;8.93;2.17;;;;;;;7.69;80.07;99872.44;4956769;28;20026;-71
2022/04/08 07:29:50;;;;;;;7.88;2.17;;;;;;;7.66;78.70;99864.66;4975104;28;20026;-71
2022/04/08 07:32:20;;;;;;;9.65;2.10;;;;;;;7.67;78.49;99871.66;4975028;28;20157;-71
2022/04/08 07:34:52;;;;;;;5.20;1.58;;;;;;;7.74;79.85;99867.78;4963080;28;20154;-71
2022/04/08 07:37:28;;;;;;;9.43;1.80;;;;;;;7.68;77.51;99863.66;4973961;28;20066;-71
2022/04/08 07:39:54;;;;;;;10.32;2.00;;;;;;;7.67;77.28;99866.38;4976312;28;20035;-71
2022/04/08 07:42:19;;;;;;;10.68;2.08;;;;;;;7.52;78.96;99862.72;4941781;28;20383;-71
2022/04/08 07:44:45;;;;;;;7.25;2.20;;;;;;;7.66;79.06;99862.91;4975195;28;20422;-70
2022/04/08 07:47:10;;;;;;;9.18;2.15;;;;;;;7.77;77.10;99859.72;4967958;28;20035;-70
2022/04/08 07:49:36;;;;;;;12.82;2.47;;;;;;;7.82;77.61;99864.78;4974565;28;20026;-71
2022/04/08 07:52:01;;;;;;;9.48;1.92;;;;;;;7.92;76.01;99858.13;4974642;28;20030;-71
2022/04/08 07:54:27;;;;;;;8.80;2.10;;;;;;;7.95;77.25;99860.59;4953737;28;20479;-71
2022/04/08 07:56:52;;;;;;;9.52;1.83;;;;;;;8.08;76.37;99857.34;4967549;28;20917;-71
2022/04/08 07:59:17;;;;;;;7.22;1.80;;;;;;;8.23;76.32;99863.66;4974800;28;20065;-71
2022/04/08 08:01:43;;;;;;;10.25;1.90;;;;;;;8.26;76.38;99861.72;4976656;28;20074;-71
2022/04/08 08:04:08;;;;;;;10.57;2.13;;;;;;;8.27;75.38;99859.91;4974098;28;20157;-70
2022/04/08 08:06:34;;;;;;;15.18;2.72;;;;;;;8.31;74.06;99862.34;4957116;28;20034;-71
2022/04/08 08:08:59;;;;;;;14.48;1.95;;;;;;;8.37;72.90;99862.00;4989691;28;20045;-71
2022/04/08 08:11:26;;;;;;;11.10;1.92;;;;;;;8.16;72.50;99853.41;4974374;28;20046;-71
2022/04/08 08:13:52;;;;;;;12.75;2.00;;;;;;;8.17;72.04;99851.63;4974439;28;20082;-71
2022/04/08 08:16:17;;;;;;;10.55;2.10;;;;;;;8.10;71.93;99852.88;4957093;28;20485;-70
2022/04/08 08:18:43;;;;;;;7.78;1.77;;;;;;;8.06;72.76;99853.94;4973910;28;20034;-70
2022/04/08 08:21:09;;;;;;;9.20;2.00;;;;;;;8.12;73.26;99841.31;4977156;28;20106;-71
2022/04/08 08:23:34;;;;;;;7.40;2.30;;;;;;;8.20;73.32;99846.19;4956959;28;20062;-72
2022/04/08 08:25:59;;;;;;;7.55;1.70;;;;;;;8.20;72.47;99836.50;4956762;28;20023;-71
2022/04/08 08:28:25;;;;;;;6.75;1.77;;;;;;;8.39;70.98;99835.56;4948215;28;20031;-69
2022/04/08 08:30:50;;;;;;;11.27;2.10;;;;;;;8.45;72.29;99839.66;4969256;28;20427;-70
2022/04/08 08:33:16;;;;;;;10.60;2.25;;;;;;;8.64;72.43;99842.22;4962971;28;20027;-70
2022/04/08 08:35:41;;;;;;;13.45;2.83;;;;;;;8.64;71.89;99832.50;4942823;28;20039;-69
2022/04/08 08:38:07;;;;;;;12.30;2.17;;;;;;;8.73;71.11;99831.16;4965519;28;20121;-69
2022/04/08 08:40:34;;;;;;;10.70;2.03;;;;;;;8.78;70.87;99836.22;4967921;28;20089;-71
2022/04/08 08:43:00;;;;;;;11.13;2.40;;;;;;;9.19;71.00;99833.09;4974023;28;20042;-71
2022/04/08 08:45:32;;;;;;;7.80;1.80;;;;;;;9.64;68.56;99841.16;4972592;28;20022;-71
2022/04/08 08:48:00;;;;;;;9.10;2.17;;;;;;;9.54;67.73;99837.34;4973826;28;20022;-72
2022/04/08 08:50:27;;;;;;;9.40;2.30;;;;;;;9.35;67.38;99835.75;4973282;28;20038;-71
2022/04/08 08:52:53;;;;;;;9.60;2.25;;;;;;;9.31;67.83;99829.78;4982040;28;20437;-71
2022/04/08 08:55:19;;;;;;;9.00;2.15;;;;;;;9.49;67.49;99819.13;4972369;28;20035;-71
2022/04/08 08:57:45;;;;;;;6.68;1.98;;;;;;;9.73;67.60;99823.94;4973028;28;20057;-71
2022/04/08 09:00:18;;;;;;;8.68;2.13;;;;;;;10.03;65.89;99831.88;4973392;28;20038;-71
2022/04/08 09:02:48;;;;;;;12.38;2.78;;;;;;;9.93;66.02;99818.31;4967850;28;20114;-71
2022/04/08 09:05:25;;;;;;;6.90;1.80;;;;;;;10.12;65.72;99822.56;4954044;29;20042;-71
2022/04/08 09:08:05;;;;;;;10.65;2.00;;;;;;;9.98;64.26;99816.25;4965570;28;20037;-70
2022/04/08 09:10:38;;;;;;;7.90;1.80;;;;;;;9.74;65.36;99823.00;4966354;28;20027;-70
2022/04/08 09:13:05;;;;;;;9.70;2.03;;;;;;;9.83;63.85;99822.44;4936720;29;20059;-71
2022/04/08 09:15:33;;;;;;;8.38;1.77;;;;;;;10.05;64.14;99839.72;4953878;29;20030;-70
2022/04/08 09:18:10;;;;;;;9.60;1.70;;;;;;;9.71;62.96;99825.81;4971988;28;20039;-70
2022/04/08 09:20:44;;;;;;;9.48;1.67;;;;;;;9.49;65.01;99824.41;4973477;28;20031;-70
2022/04/08 09:23:11;;;;;;;12.45;1.90;;;;;;;9.51;66.92;99830.44;4955781;28;20030;-72
2022/04/08 09:25:37;;;;;;;7.60;2.00;;;;;;;9.35;65.70;99841.88;4971370;28;20129;-72
2022/04/08 09:28:11;;;;;;;4.32;1.80;;;;;;;9.24;66.85;99825.75;4974062;28;20089;-72
2022/04/08 09:30:37;;;;;;;5.68;1.52;;;;;;;9.38;66.38;99832.09;4972250;28;20435;-71
2022/04/08 09:33:13;;;;;;;8.70;1.80;;;;;;;9.56;67.13;99822.25;4951076;28;20487;-71
2022/04/08 09:35:40;;;;;;;10.18;2.35;;;;;;;9.66;66.19;99821.63;4970281;28;20398;-71
2022/04/08 09:38:06;;;;;;;7.50;1.70;;;;;;;9.41;68.51;99811.63;4978778;28;20500;-71
2022/04/08 09:40:36;;;;;;;13.20;2.67;;;;;;;9.52;68.95;99805.72;4973146;28;20474;-71
2022/04/08 09:43:02;;;;;;;11.25;2.20;;;;;;;9.40;68.52;99807.28;4973152;28;20118;-71
2022/04/08 09:45:30;;;;;;;11.60;2.20;;;;;;;9.47;68.02;99813.06;4972918;28;20023;-71
2022/04/08 09:47:57;;;;;;;7.88;2.45;;;;;;;9.76;68.95;99810.56;4975005;28;20030;-71
2022/04/08 09:50:24;;;;;;;5.07;1.77;;;;;;;9.93;67.04;99813.03;4957347;28;20031;-71
2022/04/08 09:52:49;;;;;;;9.82;2.50;;;;;;;10.11;66.48;99816.38;4982748;28;20027;-71
2022/04/08 09:55:16;;;;;;;10.02;2.10;;;;;;;10.20;67.20;99815.00;4972378;28;20031;-70
2022/04/08 09:57:46;;;;;;;8.70;2.10;;;;;;;10.63;64.95;99820.38;4980896;28;20074;-71
2022/04/08 10:00:12;;;;;;;6.82;1.80;;;;;;;10.70;64.23;99827.94;4956802;28;20438;-72
2022/04/08 10:02:44;;;;;;;9.23;1.80;;;;;;;10.74;63.38;99821.50;4955266;28;20525;-71
2022/04/08 10:05:11;;;;;;;10.43;2.50;;;;;;;10.77;62.79;99827.47;4972757;28;20251;-71
2022/04/08 10:07:40;;;;;;;11.52;2.05;;;;;;;11.06;64.06;99816.84;4972572;28;20089;-72
2022/04/08 10:10:12;;;;;;;10.88;2.22;;;;;;;11.50;62.42;99824.72;4983787;28;20045;-72
2022/04/08 10:12:47;;;;;;;9.80;2.05;;;;;;;11.70;59.12;99813.63;4983511;28;20114;-72
2022/04/08 10:15:26;;;;;;;8.27;1.80;;;;;;;11.25;61.58;99818.31;4979472;28;20034;-71
2022/04/08 10:17:59;;;;;;;8.82;2.53;;;;;;;11.59;60.11;99824.09;4967170;28;20109;-71
2022/04/08 10:20:27;;;;;;;13.65;2.05;;;;;;;11.07;60.11;99818.53;4968071;28;20057;-70
2022/04/08 10:23:02;;;;;;;11.82;2.20;;;;;;;10.86;61.09;99817.22;4976414;28;20101;-70
2022/04/08 10:25:37;;;;;;;7.00;1.92;;;;;;;11.09;62.15;99829.06;4942887;28;20019;-71
2022/04/08 10:28:03;;;;;;;7.25;1.92;;;;;;;11.34;59.09;99824.84;4960434;28;20033;-71
2022/04/08 10:30:28;;;;;;;7.25;1.90;;;;;;;11.68;59.50;99820.84;4975113;28;20034;-71
2022/04/08 10:33:01;;;;;;;7.45;1.90;;;;;;;11.47;59.38;99818.63;4972811;28;20122;-71
2022/04/08 10:35:27;;;;;;;5.28;1.70;;;;;;;11.03;59.60;99816.19;4939606;29;20090;-71
2022/04/08 10:38:01;;;;;;;7.20;1.83;;;;;;;11.04;60.77;99829.34;4939495;29;20364;-71
2022/04/08 10:40:40;;;;;;;7.30;1.55;;;;;;;11.19;58.68;99831.94;4974526;28;20034;-71
2022/04/08 10:43:07;;;;;;;10.00;1.80;;;;;;;11.23;57.50;99834.31;4977375;28;20026;-71
2022/04/08 10:45:34;;;;;;;8.77;2.22;;;;;;;10.80;59.30;99835.22;4973322;28;20050;-71
2022/04/08 10:48:01;;;;;;;9.02;1.90;;;;;;;10.85;61.31;99839.38;4965349;28;20042;-70
2022/04/08 10:50:32;;;;;;;8.35;1.95;;;;;;;10.90;61.72;99837.31;4975719;28;20030;-70
2022/04/08 10:53:18;;;;;;;6.63;1.65;;;;;;;10.92;61.03;99832.75;4978927;28;20136;-71
2022/04/08 10:55:56;;;;;;;4.32;1.77;;;;;;;10.82;58.12;99824.53;4969446;28;20088;-71
2022/04/08 10:58:34;;;;;;;12.98;2.35;;;;;;;10.67;60.25;99807.81;4969991;28;20542;-71
2022/04/08 11:01:00;;;;;;;6.22;1.60;;;;;;;10.57;58.46;99814.59;4969586;28;20034;-72
2022/04/08 11:03:29;;;;;;;9.10;1.92;;;;;;;10.41;58.71;99817.31;4943422;28;20777;-71
2022/04/08 11:05:55;;;;;;;8.00;2.78;;;;;;;10.73;60.52;99815.38;4980204;28;20042;-72
2022/04/08 11:08:25;;;;;;;13.50;2.45;;;;;;;10.70;60.92;99822.66;4954689;28;20046;-70
2022/04/08 11:10:58;;;;;;;7.30;2.10;;;;;;;11.02;60.06;99820.63;4975226;28;20062;-70
2022/04/08 11:13:23;;;;;;;7.60;1.67;;;;;;;10.92;59.07;99817.72;4976409;28;20079;-71
2022/04/08 11:15:49;;;;;;;4.97;1.70;;;;;;;10.93;58.58;99805.31;4975136;28;20071;-71
2022/04/08 11:18:14;;;;;;;6.93;2.30;;;;;;;10.79;58.37;99820.28;4974630;28;20035;-71
2022/04/08 11:20:40;;;;;;;7.93;1.50;;;;;;;10.95;58.73;99811.38;4975821;28;20030;-71
2022/04/08 11:23:05;;;;;;;5.45;1.90;;;;;;;10.75;58.16;99805.50;4987672;28;20034;-71
2022/04/08 11:25:31;;;;;;;10.02;1.73;;;;;;;10.61;59.39;99803.75;4975076;28;20464;-72
2022/04/08 11:28:02;;;;;;;11.02;2.10;;;;;;;10.62;60.44;99804.59;4958365;28;20030;-72
2022/04/08 11:30:29;;;;;;;12.23;2.40;;;;;;;10.57;60.78;99796.06;4957836;28;20051;-70
2022/04/08 11:32:55;;;;;;;9.25;1.85;;;;;;;10.79;59.48;99791.16;4973749;28;20271;-71
2022/04/08 11:35:21;;;;;;;7.72;1.80;;;;;;;10.88;58.49;99792.38;4976635;28;20035;-71